Flight Track Log - Related Links

Times and Time Zones

All times are in EST time to prevent confusion due to time zone crossing. See the UCA596 flight status page for this flight to view local times or setup timezone preferences in your user account.

Time Position Orientation Groundspeed Altitude Reporting Facility
EST Latitude Longitude Course Direction KTS km/h feet Rate Location/Type
Sun 13:10:33 38.9667 -77.5000 North 134 248 2.100  Level Potomac TRACON
Sun 13:11:33 39.0000 -77.5167 339° North 159 295 3.600 1.507 Climbing Potomac TRACON
Sun 13:14:04 39.0994 -77.5681 338° Northwest 158 293 7.400 1.472 Climbing Washington Center
Sun 13:15:05 39.1494 -77.5642 North 158 293 8.800 1.328 Climbing Washington Center
Sun 13:16:00 39.3292 -77.2943 North  Level Estimated
Sun 13:16:06 39.2017 -77.5656 359° North 163 303 10.100  Level Washington Center
Sun 13:17:06 39.2456 -77.5506 15° North 168 311 12.000 1.475 Climbing Washington Center
Sun 13:18:04 39.3000 -77.5386 10° North 178 330 13.000 2.308 Climbing Washington Center
Sun 13:20:08 39.4119 -77.5136 10° North 195 360 19.000 1.370 Climbing New York Center
Sun 13:21:08 39.4669 -77.5000 11° North 200 370 17.200 -250 Descending New York Center
Sun 13:22:08 39.5111 -77.4908 North 186 344 18.500 900 Climbing New York Center
Sun 13:23:08 39.5514 -77.4811 11° North 159 295 19.000 250 Climbing New York Center
Sun 13:24:08 39.6086 -77.4650 12° North 168 311 19.000  Level New York Center
Sun 13:25:08 39.6656 -77.4542 North 192 356 19.000  Level New York Center
Sun 13:26:08 39.7219 -77.4542 360° North 198 367 19.000  Level New York Center
Sun 13:27:08 39.7781 -77.4542 360° North 203 377 19.000 -150 Level New York Center
Sun 13:28:08 39.8344 -77.4542 360° North 198 367 18.700 -600 Descending New York Center
Sun 13:29:08 39.8950 -77.4517 North 214 396 17.800 -650 Descending New York Center
Sun 13:30:08 39.9597 -77.4500 North 220 407 17.400 -650 Descending New York Center
Sun 13:31:08 40.0264 -77.4508 359° North 237 439 16.500 -850 Descending New York Center
Sun 13:32:08 40.0983 -77.4333 11° North 244 452 15.700 -750 Descending New York Center
Sun 13:33:08 40.1700 -77.3858 27° Northeast 272 504 15.000 -350 Descending New York Center
Sun 13:34:08 40.2389 -77.3433 25° Northeast 278 515 15.000  Level New York Center
Sun 13:35:08 40.3061 -77.3008 26° Northeast 267 494 15.000  Level New York Center
Sun 13:36:08 40.3728 -77.2633 23° Northeast 262 486 15.000  Level New York Center
Sun 13:37:08 40.4397 -77.2206 26° Northeast 262 486 15.000  Level New York Center
Sun 13:38:08 40.5022 -77.1828 25° Northeast 257 476 15.000  Level New York Center
Sun 13:39:08 40.5625 -77.1475 24° Northeast 257 476 15.000  Level New York Center
Sun 13:40:08 40.6317 -77.1019 27° Northeast 257 476 15.000  Level New York Center
Sun 13:41:08 40.6919 -77.0664 24° Northeast 257 476 15.000  Level New York Center
Sun 13:42:08 40.7564 -77.0256 26° Northeast 257 476 15.000  Level New York Center
Sun 13:43:08 40.8211 -76.9878 24° Northeast 257 476 15.000  Level New York Center
Sun 13:44:08 40.8919 -76.9447 25° Northeast 257 476 15.000  Level New York Center
Sun 13:45:08 40.9483 -76.9058 28° Northeast 252 467 15.000  Level New York Center
Sun 13:46:08 41.0128 -76.8678 24° Northeast 252 467 15.000  Level New York Center
Sun 13:47:08 41.0772 -76.8267 26° Northeast 252 467 15.000  Level New York Center
Sun 13:48:08 41.1419 -76.7856 26° Northeast 247 457 15.000  Level New York Center
Sun 13:49:08 41.2044 -76.7469 25° Northeast 247 457 15.000  Level New York Center
Sun 13:50:08 41.2708 -76.7061 25° Northeast 247 457 15.000  Level New York Center
Sun 13:51:08 41.3419 -76.6597 26° Northeast 247 457 15.000  Level New York Center
Sun 13:52:08 41.4000 -76.6233 25° Northeast 247 457 15.000  Level New York Center
Sun 13:53:08 41.4647 -76.5819 26° Northeast 247 457 15.000  Level New York Center
Sun 13:54:08 41.5356 -76.5381 25° Northeast 247 457 15.000  Level New York Center
Sun 13:55:08 41.6019 -76.4967 25° Northeast 247 457 15.000 -600 Level New York Center
Sun 13:56:08 41.6686 -76.4525 26° Northeast 253 468 13.800 -1.350 Descending New York Center
Sun 13:57:08 41.7333 -76.4078 27° Northeast 272 504 12.300 -1.500 Descending New York Center
Sun 13:58:08 41.8039 -76.3667 23° Northeast 277 513 10.800 -1.550 Descending New York Center
Sun 13:59:08 41.8792 -76.3172 26° Northeast 272 504 9.200 -1.550 Descending New York Center
Sun 14:00:08 41.9436 -76.2750 26° Northeast 261 483 7.700 -1.600 Descending New York Center
Sun 14:01:08 41.9983 -76.2156 39° Northeast 250 463 6.000 -1.900 Descending New York Center
Sun 14:02:08 42.0406 -76.1603 44° Northeast 242 447 3.900 -1.200 Descending New York Center
Sun 14:03:08 42.0850 -76.0942 48° Northeast 232 430 3.600 -150 Descending New York Center
Sun 14:04:08 42.1169 -76.0353 54° Northeast 213 394 3.600 -150 Level New York Center
Sun 14:05:08 42.1397 -75.9894 56° Northeast 177 328 3.300 -500 Descending New York Center
Sun 14:06:08 42.1683 -75.9553 42° Northeast 147 272 2.600 -500 Descending New York Center
Sun 14:07:08 42.1933 -75.9517 North 108 200 2.300 6.200 Descending New York Center
Sun 14:08:08 42.2214 -75.9317 28° Northeast 108 200 15.000 6.350 Climbing New York Center
Sun 14:09:08 42.2469 -75.9139 27° Northeast 108 200 15.000  Level New York Center
Sun 14:11:00 42.2000 -75.9667 236° Southwest  Level FlightAware Approximate

Login

Don't have an account? Register now (free) for customized features, flight alerts, and more!